Terminal Aerodrome Forecast
Issued by NWS

Home | Current Version | Previous Version | Graphics & Text | Print | Product List | Glossary On
Versions: 1 2 3 4 5 6 7 8 9 10 11 12 13 14 15 16 17 18
000
FTUS43 KGRB 242300
TAFATW
TAF
KATW 242328Z 2500/2524 VRB03KT P6SM SCT060
     FM250600 20004KT P6SM SCT050 BKN250 WS010/24030KT
     FM251400 20010G18KT P6SM SCT040 BKN090=

USA.gov is the U.S. government's official web portal to all federal, state and local government web resources and services.